Maple Ridge, Minnesota
Current Conditions -  °F | °C
As of 3:13 AM on Wednesday 28 Jan 2015 (Local Time) from KBJI Reporting Station
Overcast Overcast  
Wind Chill: 21°   Ceiling: 800
Heat Index: 30°   Visibility: 10mi
Dew Point: 28°   Wind: 10mph
Humidity: 90%   Direction: 150°SSE
Pressure: 29.9"   Gusts: NA
Location:  47.7369°N, 94.9947°W
Report Text: KBJI 280913Z AUTO 15009KT 10SM OVC008 M01/M02 A2990 RMK AO2 T10111025
Loading
Personal Weather Stations






























Interactive Weather Map New forecast layout! Learn more

10-Day Weather Forecast

Advertisements
Track Severe Weather on mobile